Aviation Digital Data Service (ADDS)

Output produced by METARs form (0727 UTC 24 March 2019)
found at http://www.aviationweather.gov/metar/data/
 
KBDR 240652Z AUTO 24003KT 10SM CLR 03/M11 A3014 RMK AO2 SLP204 T00281111
KBDR 240539Z 2406/2506 29007KT P6SM SKC 
     FM241600 26011KT P6SM FEW250 
     FM241800 24011G18KT P6SM SCT200 
     FM242200 23008KT P6SM SCT150 BKN200 
     FM250500 26005KT P6SM OVC010
       
KDXR 240653Z AUTO 25003KT 10SM CLR M04/M08 A3014 RMK AO2 SLP208 T10391083
KGON 240656Z AUTO 30010KT 10SM CLR 02/M12 A3008 RMK AO2 SLP186 T00221117
KGON 240539Z 2406/2506 29008KT P6SM SKC 
     FM241400 27010KT P6SM SKC 
     FM241800 24013G20KT P6SM FEW200 
     FM242200 23012KT P6SM SCT150 BKN200 
     FM250300 25007KT P6SM BKN100 OVC120
       
KHFD 240653Z AUTO VRB03KT 10SM CLR 01/M11 A3012 RMK AO2 SLP199 T00111111
KMMK 240653Z AUTO 27003KT 10SM CLR M03/M08 A3012 RMK AO2 SLP201 T10281078 $
KHVN 240653Z AUTO 00000KT 10SM CLR 02/M10 A3013 RMK AO2 SLP202 T00221100
KOXC 240651Z AUTO 33005KT 10SM CLR M02/M09 A3010 RMK AO2 SLP211 T10171094 FZRANO
KIJD 240652Z AUTO 31007KT 280V340 10SM CLR 01/M11 A3007 RMK AO2 SLP186 T00061111
KBDL 240651Z 29004KT 10SM FEW220 M01/M11 A3009 RMK AO2 SLP192 T10061111
KBDL 240531Z 2406/2512 30010G20KT P6SM SKC 
     FM240900 25006KT P6SM SKC 
     FM241600 24010KT P6SM FEW250 
     FM250000 23005KT P6SM BKN130 
     FM250800 29004KT P6SM BKN100